sensor_id;sensor_type;location;lat;lon;timestamp;pressure;altitude;pressure_sealevel;temperature;humidity
40155;BME280;25875;48.202;16.334;2023-12-20T00:00:26;98984.78;;;1.82;67.97
40155;BME280;25875;48.202;16.334;2023-12-20T00:02:52;98978.34;;;1.96;67.37
40155;BME280;25875;48.202;16.334;2023-12-20T00:05:19;98952.75;;;1.74;67.51
40155;BME280;25875;48.202;16.334;2023-12-20T00:07:47;98981.59;;;2.04;66.78
40155;BME280;25875;48.202;16.334;2023-12-20T00:10:13;98998.00;;;2.09;66.83
40155;BME280;25875;48.202;16.334;2023-12-20T00:12:40;98997.13;;;2.10;66.62
40155;BME280;25875;48.202;16.334;2023-12-20T00:15:07;98999.72;;;2.10;66.38
40155;BME280;25875;48.202;16.334;2023-12-20T00:17:34;98992.78;;;2.09;66.42
40155;BME280;25875;48.202;16.334;2023-12-20T00:20:01;98992.84;;;2.07;66.35
40155;BME280;25875;48.202;16.334;2023-12-20T00:22:27;98757.66;;;0.79;66.07
40155;BME280;25875;48.202;16.334;2023-12-20T00:24:55;98984.88;;;2.12;66.11
40155;BME280;25875;48.202;16.334;2023-12-20T00:27:22;98980.44;;;2.14;66.11
40155;BME280;25875;48.202;16.334;2023-12-20T00:29:49;98981.41;;;2.11;66.12
40155;BME280;25875;48.202;16.334;2023-12-20T00:32:16;98985.00;;;2.07;66.26
40155;BME280;25875;48.202;16.334;2023-12-20T00:34:43;98985.13;;;2.03;66.56
40155;BME280;25875;48.202;16.334;2023-12-20T00:37:10;98983.50;;;1.97;66.83
40155;BME280;25875;48.202;16.334;2023-12-20T00:39:36;98995.44;;;2.07;66.36
40155;BME280;25875;48.202;16.334;2023-12-20T00:42:05;98991.84;;;2.11;66.12
40155;BME280;25875;48.202;16.334;2023-12-20T00:44:31;98970.81;;;2.16;65.76
40155;BME280;25875;48.202;16.334;2023-12-20T00:46:58;98976.97;;;2.13;65.90
40155;BME280;25875;48.202;16.334;2023-12-20T00:49:24;98977.88;;;2.12;65.88
40155;BME280;25875;48.202;16.334;2023-12-20T00:51:51;99000.63;;;2.09;66.28
40155;BME280;25875;48.202;16.334;2023-12-20T00:54:18;98986.63;;;2.11;66.21
40155;BME280;25875;48.202;16.334;2023-12-20T00:56:45;98985.97;;;2.03;66.89
40155;BME280;25875;48.202;16.334;2023-12-20T00:59:13;98988.41;;;2.09;66.45
40155;BME280;25875;48.202;16.334;2023-12-20T01:01:40;98996.25;;;2.09;66.78
40155;BME280;25875;48.202;16.334;2023-12-20T01:04:07;98996.25;;;2.09;66.61
40155;BME280;25875;48.202;16.334;2023-12-20T01:06:34;98988.38;;;2.11;66.86
40155;BME280;25875;48.202;16.334;2023-12-20T01:09:00;98973.44;;;2.16;66.82
40155;BME280;25875;48.202;16.334;2023-12-20T01:11:27;98976.09;;;2.14;66.64
40155;BME280;25875;48.202;16.334;2023-12-20T01:13:54;98942.44;;;2.02;66.38
40155;BME280;25875;48.202;16.334;2023-12-20T01:16:22;98981.97;;;2.22;66.62
40155;BME280;25875;48.202;16.334;2023-12-20T01:18:48;98973.31;;;2.20;67.04
40155;BME280;25875;48.202;16.334;2023-12-20T01:21:15;98966.22;;;2.24;66.79
40155;BME280;25875;48.202;16.334;2023-12-20T01:23:42;98963.50;;;2.29;66.85
40155;BME280;25875;48.202;16.334;2023-12-20T01:26:09;98963.75;;;2.19;67.46
40155;BME280;25875;48.202;16.334;2023-12-20T01:28:35;98959.50;;;2.15;68.11
40155;BME280;25875;48.202;16.334;2023-12-20T01:31:03;98961.13;;;2.19;67.55
40155;BME280;25875;48.202;16.334;2023-12-20T01:33:31;98967.81;;;2.30;67.09
40155;BME280;25875;48.202;16.334;2023-12-20T01:35:57;98952.03;;;2.33;66.98
40155;BME280;25875;48.202;16.334;2023-12-20T01:38:24;98947.75;;;2.30;67.21
40155;BME280;25875;48.202;16.334;2023-12-20T01:40:50;98944.38;;;2.27;67.26
40155;BME280;25875;48.202;16.334;2023-12-20T01:43:17;98953.06;;;2.27;67.42
40155;BME280;25875;48.202;16.334;2023-12-20T01:45:44;98943.59;;;2.23;67.89
40155;BME280;25875;48.202;16.334;2023-12-20T01:48:11;98947.41;;;2.11;68.24
40155;BME280;25875;48.202;16.334;2023-12-20T01:50:39;98938.50;;;2.18;67.75
40155;BME280;25875;48.202;16.334;2023-12-20T01:53:07;98931.38;;;2.23;67.41
40155;BME280;25875;48.202;16.334;2023-12-20T01:55:38;98920.09;;;2.21;67.42
40155;BME280;25875;48.202;16.334;2023-12-20T01:58:06;98926.31;;;2.17;67.58
40155;BME280;25875;48.202;16.334;2023-12-20T02:00:33;98863.59;;;1.86;67.45
40155;BME280;25875;48.202;16.334;2023-12-20T02:03:01;98912.34;;;2.18;67.36
40155;BME280;25875;48.202;16.334;2023-12-20T02:05:29;98802.69;;;1.52;67.34
40155;BME280;25875;48.202;16.334;2023-12-20T02:07:57;98889.84;;;2.13;67.56
40155;BME280;25875;48.202;16.334;2023-12-20T02:10:24;98842.59;;;1.89;67.74
40155;BME280;25875;48.202;16.334;2023-12-20T02:12:51;98890.84;;;2.09;67.67
40155;BME280;25875;48.202;16.334;2023-12-20T02:15:18;98877.84;;;2.06;67.60
40155;BME280;25875;48.202;16.334;2023-12-20T02:17:46;98879.88;;;1.96;68.01
40155;BME280;25875;48.202;16.334;2023-12-20T02:20:13;98865.34;;;1.86;67.98
40155;BME280;25875;48.202;16.334;2023-12-20T02:22:41;98864.88;;;1.72;68.41
40155;BME280;25875;48.202;16.334;2023-12-20T02:25:08;98858.88;;;1.68;68.35
40155;BME280;25875;48.202;16.334;2023-12-20T02:27:35;98880.94;;;1.56;68.75
40155;BME280;25875;48.202;16.334;2023-12-20T02:30:02;98853.72;;;1.65;68.39
40155;BME280;25875;48.202;16.334;2023-12-20T02:32:28;98817.63;;;1.47;68.49
40155;BME280;25875;48.202;16.334;2023-12-20T02:34:55;98842.44;;;1.65;68.05
40155;BME280;25875;48.202;16.334;2023-12-20T02:37:22;98837.63;;;1.48;68.53
40155;BME280;25875;48.202;16.334;2023-12-20T02:39:50;98837.38;;;1.57;68.40
40155;BME280;25875;48.202;16.334;2023-12-20T02:42:17;98830.47;;;1.54;67.96
40155;BME280;25875;48.202;16.334;2023-12-20T02:44:44;98824.22;;;1.62;67.31
40155;BME280;25875;48.202;16.334;2023-12-20T02:47:10;98825.78;;;1.69;67.24
40155;BME280;25875;48.202;16.334;2023-12-20T02:49:37;98831.03;;;1.67;66.85
40155;BME280;25875;48.202;16.334;2023-12-20T02:52:04;98820.59;;;1.67;66.61
40155;BME280;25875;48.202;16.334;2023-12-20T02:54:31;98817.53;;;1.82;66.01
40155;BME280;25875;48.202;16.334;2023-12-20T02:56:59;98819.31;;;2.11;64.98
40155;BME280;25875;48.202;16.334;2023-12-20T02:59:26;98807.88;;;2.43;63.81
40155;BME280;25875;48.202;16.334;2023-12-20T03:01:52;98810.38;;;2.74;62.88
40155;BME280;25875;48.202;16.334;2023-12-20T03:04:19;98811.28;;;3.00;61.63
40155;BME280;25875;48.202;16.334;2023-12-20T03:06:46;98781.59;;;3.26;60.81
40155;BME280;25875;48.202;16.334;2023-12-20T03:09:12;98794.38;;;3.10;61.47
40155;BME280;25875;48.202;16.334;2023-12-20T03:11:39;98788.94;;;2.90;61.26
40155;BME280;25875;48.202;16.334;2023-12-20T03:14:07;98803.00;;;2.87;61.65
40155;BME280;25875;48.202;16.334;2023-12-20T03:16:34;98764.50;;;2.64;61.44
40155;BME280;25875;48.202;16.334;2023-12-20T03:19:00;98811.38;;;2.70;60.92
40155;BME280;25875;48.202;16.334;2023-12-20T03:21:27;98820.13;;;2.69;61.16
40155;BME280;25875;48.202;16.334;2023-12-20T03:23:55;98815.25;;;2.59;60.80
40155;BME280;25875;48.202;16.334;2023-12-20T03:26:21;98810.06;;;2.57;60.45
40155;BME280;25875;48.202;16.334;2023-12-20T03:28:48;98817.25;;;2.50;59.79
40155;BME280;25875;48.202;16.334;2023-12-20T03:31:16;98806.94;;;2.46;59.93
40155;BME280;25875;48.202;16.334;2023-12-20T03:33:43;98812.97;;;2.48;60.25
40155;BME280;25875;48.202;16.334;2023-12-20T03:36:10;98812.31;;;2.41;60.52
40155;BME280;25875;48.202;16.334;2023-12-20T03:38:36;98815.50;;;2.51;60.72
40155;BME280;25875;48.202;16.334;2023-12-20T03:41:04;98769.88;;;2.32;60.45
40155;BME280;25875;48.202;16.334;2023-12-20T03:43:30;98795.47;;;2.50;60.15
40155;BME280;25875;48.202;16.334;2023-12-20T03:45:57;98802.34;;;2.52;60.30
40155;BME280;25875;48.202;16.334;2023-12-20T03:48:25;98798.78;;;2.55;60.21
40155;BME280;25875;48.202;16.334;2023-12-20T03:50:52;98799.66;;;2.55;60.02
40155;BME280;25875;48.202;16.334;2023-12-20T03:53:18;98806.78;;;2.50;59.86
40155;BME280;25875;48.202;16.334;2023-12-20T03:55:45;98801.69;;;2.46;59.84
40155;BME280;25875;48.202;16.334;2023-12-20T03:58:12;98796.63;;;2.41;59.84
40155;BME280;25875;48.202;16.334;2023-12-20T04:00:39;98805.06;;;2.49;60.25
40155;BME280;25875;48.202;16.334;2023-12-20T04:03:05;98806.63;;;2.55;60.27
40155;BME280;25875;48.202;16.334;2023-12-20T04:05:33;98810.88;;;2.59;60.31
40155;BME280;25875;48.202;16.334;2023-12-20T04:08:01;98802.13;;;2.60;60.12
40155;BME280;25875;48.202;16.334;2023-12-20T04:10:28;98798.59;;;2.61;60.37
40155;BME280;25875;48.202;16.334;2023-12-20T04:12:55;98802.72;;;2.68;60.25
40155;BME280;25875;48.202;16.334;2023-12-20T04:15:21;98803.69;;;2.66;60.00
40155;BME280;25875;48.202;16.334;2023-12-20T04:17:48;98793.31;;;2.63;59.78
40155;BME280;25875;48.202;16.334;2023-12-20T04:20:15;98799.25;;;2.68;60.11
40155;BME280;25875;48.202;16.334;2023-12-20T04:22:43;98772.94;;;2.46;59.56
40155;BME280;25875;48.202;16.334;2023-12-20T04:25:09;98804.50;;;2.68;60.00
40155;BME280;25875;48.202;16.334;2023-12-20T04:27:36;98802.78;;;2.67;59.65
40155;BME280;25875;48.202;16.334;2023-12-20T04:30:03;98804.53;;;2.66;59.77
40155;BME280;25875;48.202;16.334;2023-12-20T04:32:30;98794.72;;;2.73;59.88
40155;BME280;25875;48.202;16.334;2023-12-20T04:34:56;98795.09;;;2.88;59.32
40155;BME280;25875;48.202;16.334;2023-12-20T04:37:23;98798.34;;;2.95;59.17
40155;BME280;25875;48.202;16.334;2023-12-20T04:39:51;98804.13;;;3.05;59.10
40155;BME280;25875;48.202;16.334;2023-12-20T04:42:18;98806.44;;;3.14;58.95
40155;BME280;25875;48.202;16.334;2023-12-20T04:44:44;98796.56;;;3.22;58.54
40155;BME280;25875;48.202;16.334;2023-12-20T04:47:11;98801.69;;;3.25;58.86
40155;BME280;25875;48.202;16.334;2023-12-20T04:49:38;98791.59;;;3.39;58.68
40155;BME280;25875;48.202;16.334;2023-12-20T04:52:05;98792.88;;;3.52;58.50
40155;BME280;25875;48.202;16.334;2023-12-20T04:54:32;98800.34;;;3.63;58.80
40155;BME280;25875;48.202;16.334;2023-12-20T04:57:00;98794.72;;;3.74;58.58
40155;BME280;25875;48.202;16.334;2023-12-20T04:59:26;98798.88;;;3.79;58.94
40155;BME280;25875;48.202;16.334;2023-12-20T05:01:53;98737.41;;;3.41;59.04
40155;BME280;25875;48.202;16.334;2023-12-20T05:04:20;98795.47;;;4.01;59.63
40155;BME280;25875;48.202;16.334;2023-12-20T05:06:46;98793.25;;;4.13;59.91
40155;BME280;25875;48.202;16.334;2023-12-20T05:09:15;98785.06;;;4.23;60.15
40155;BME280;25875;48.202;16.334;2023-12-20T05:11:41;98782.06;;;4.32;60.05
40155;BME280;25875;48.202;16.334;2023-12-20T05:14:09;98780.88;;;4.40;60.86
40155;BME280;25875;48.202;16.334;2023-12-20T05:16:36;98773.59;;;4.47;60.93
40155;BME280;25875;48.202;16.334;2023-12-20T05:19:02;98779.41;;;4.55;61.16
40155;BME280;25875;48.202;16.334;2023-12-20T05:21:32;98785.88;;;4.68;61.19
40155;BME280;25875;48.202;16.334;2023-12-20T05:23:58;98759.44;;;4.51;61.74
40155;BME280;25875;48.202;16.334;2023-12-20T05:26:25;98792.56;;;4.75;62.34
40155;BME280;25875;48.202;16.334;2023-12-20T05:28:52;98720.22;;;4.48;62.51
40155;BME280;25875;48.202;16.334;2023-12-20T05:31:20;98789.47;;;4.88;62.53
40155;BME280;25875;48.202;16.334;2023-12-20T05:33:46;98786.47;;;4.97;62.41
40155;BME280;25875;48.202;16.334;2023-12-20T05:36:13;98782.81;;;5.01;62.60
40155;BME280;25875;48.202;16.334;2023-12-20T05:38:40;98786.09;;;5.06;62.72
40155;BME280;25875;48.202;16.334;2023-12-20T05:41:07;98777.16;;;5.10;62.84
40155;BME280;25875;48.202;16.334;2023-12-20T05:43:33;98786.56;;;5.16;62.83
40155;BME280;25875;48.202;16.334;2023-12-20T05:46:00;98788.94;;;5.22;62.76
40155;BME280;25875;48.202;16.334;2023-12-20T05:48:28;98797.34;;;5.30;62.44
40155;BME280;25875;48.202;16.334;2023-12-20T05:50:55;98752.41;;;5.16;62.49
40155;BME280;25875;48.202;16.334;2023-12-20T05:53:21;98797.09;;;5.36;62.42
40155;BME280;25875;48.202;16.334;2023-12-20T05:55:48;98787.28;;;5.39;62.57
40155;BME280;25875;48.202;16.334;2023-12-20T05:58:15;98790.66;;;5.43;62.35
40155;BME280;25875;48.202;16.334;2023-12-20T06:00:41;98802.72;;;5.47;62.50
40155;BME280;25875;48.202;16.334;2023-12-20T06:03:08;98792.03;;;5.52;62.21
40155;BME280;25875;48.202;16.334;2023-12-20T06:05:36;98790.03;;;5.57;62.47
40155;BME280;25875;48.202;16.334;2023-12-20T06:08:03;98792.53;;;5.60;62.35
40155;BME280;25875;48.202;16.334;2023-12-20T06:10:30;98795.81;;;5.65;62.27
40155;BME280;25875;48.202;16.334;2023-12-20T06:12:56;98755.63;;;5.42;62.14
40155;BME280;25875;48.202;16.334;2023-12-20T06:15:24;98795.69;;;5.68;62.06
40155;BME280;25875;48.202;16.334;2023-12-20T06:17:50;98798.03;;;5.74;62.15
40155;BME280;25875;48.202;16.334;2023-12-20T06:20:17;98796.91;;;5.80;61.71
40155;BME280;25875;48.202;16.334;2023-12-20T06:22:45;98799.47;;;5.81;61.51
40155;BME280;25875;48.202;16.334;2023-12-20T06:25:12;98801.97;;;5.84;61.22
40155;BME280;25875;48.202;16.334;2023-12-20T06:27:38;98801.69;;;5.90;61.09
40155;BME280;25875;48.202;16.334;2023-12-20T06:30:07;98811.22;;;5.93;60.73
40155;BME280;25875;48.202;16.334;2023-12-20T06:32:34;98754.22;;;5.54;60.40
40155;BME280;25875;48.202;16.334;2023-12-20T06:35:01;98810.28;;;5.94;60.17
40155;BME280;25875;48.202;16.334;2023-12-20T06:37:27;98821.53;;;5.97;60.06
40155;BME280;25875;48.202;16.334;2023-12-20T06:39:55;98828.56;;;5.97;60.00
40155;BME280;25875;48.202;16.334;2023-12-20T06:42:22;98837.03;;;6.03;60.04
40155;BME280;25875;48.202;16.334;2023-12-20T06:44:49;98834.28;;;6.06;59.78
40155;BME280;25875;48.202;16.334;2023-12-20T06:47:15;98839.53;;;6.06;60.03
40155;BME280;25875;48.202;16.334;2023-12-20T06:49:42;98810.16;;;5.97;59.90
40155;BME280;25875;48.202;16.334;2023-12-20T06:52:09;98828.47;;;6.19;60.18
40155;BME280;25875;48.202;16.334;2023-12-20T06:54:35;98825.91;;;6.17;60.22
40155;BME280;25875;48.202;16.334;2023-12-20T06:57:04;98800.38;;;6.19;60.44
40155;BME280;25875;48.202;16.334;2023-12-20T06:59:30;98791.63;;;6.19;60.45
40155;BME280;25875;48.202;16.334;2023-12-20T07:01:57;98787.13;;;6.21;60.38
40155;BME280;25875;48.202;16.334;2023-12-20T07:04:23;98783.50;;;6.23;60.29
40155;BME280;25875;48.202;16.334;2023-12-20T07:06:50;98780.66;;;6.28;60.09
40155;BME280;25875;48.202;16.334;2023-12-20T07:09:19;98788.63;;;6.26;59.92
40155;BME280;25875;48.202;16.334;2023-12-20T07:11:45;98784.16;;;6.28;59.62
40155;BME280;25875;48.202;16.334;2023-12-20T07:14:13;98796.47;;;6.28;59.48
40155;BME280;25875;48.202;16.334;2023-12-20T07:16:40;98805.00;;;6.33;59.00
40155;BME280;25875;48.202;16.334;2023-12-20T07:19:07;98801.50;;;6.32;59.00
40155;BME280;25875;48.202;16.334;2023-12-20T07:21:33;98810.25;;;6.33;59.21
40155;BME280;25875;48.202;16.334;2023-12-20T07:24:00;98817.00;;;6.38;59.19
40155;BME280;25875;48.202;16.334;2023-12-20T07:26:27;98838.13;;;6.37;59.42
40155;BME280;25875;48.202;16.334;2023-12-20T07:28:53;98850.22;;;6.41;59.90
40155;BME280;25875;48.202;16.334;2023-12-20T07:31:21;98857.50;;;6.36;60.63
40155;BME280;25875;48.202;16.334;2023-12-20T07:33:49;98842.69;;;6.33;61.17
40155;BME280;25875;48.202;16.334;2023-12-20T07:36:15;98843.53;;;6.34;61.50
40155;BME280;25875;48.202;16.334;2023-12-20T07:38:42;98814.53;;;6.17;61.56
40155;BME280;25875;48.202;16.334;2023-12-20T07:41:09;98850.72;;;6.30;61.50
40155;BME280;25875;48.202;16.334;2023-12-20T07:43:36;98862.19;;;6.29;61.46
40155;BME280;25875;48.202;16.334;2023-12-20T07:46:06;98839.34;;;6.30;61.20
40155;BME280;25875;48.202;16.334;2023-12-20T07:48:35;98722.47;;;5.59;61.46
40155;BME280;25875;48.202;16.334;2023-12-20T07:51:02;98846.38;;;6.29;61.68
40155;BME280;25875;48.202;16.334;2023-12-20T07:53:28;98832.50;;;6.26;61.92
40155;BME280;25875;48.202;16.334;2023-12-20T07:55:55;98857.19;;;6.23;62.85
40155;BME280;25875;48.202;16.334;2023-12-20T07:58:22;98855.56;;;6.21;63.46
40155;BME280;25875;48.202;16.334;2023-12-20T08:00:48;98857.13;;;6.25;63.36
40155;BME280;25875;48.202;16.334;2023-12-20T08:03:15;98850.16;;;6.24;63.46
40155;BME280;25875;48.202;16.334;2023-12-20T08:05:43;98852.94;;;6.21;63.77
40155;BME280;25875;48.202;16.334;2023-12-20T08:08:09;98854.84;;;6.17;64.30
40155;BME280;25875;48.202;16.334;2023-12-20T08:10:36;98869.84;;;6.15;63.68
40155;BME280;25875;48.202;16.334;2023-12-20T08:13:03;98875.81;;;6.19;63.21
40155;BME280;25875;48.202;16.334;2023-12-20T08:15:30;98863.66;;;6.16;63.42
40155;BME280;25875;48.202;16.334;2023-12-20T08:17:56;98869.56;;;6.21;62.82
40155;BME280;25875;48.202;16.334;2023-12-20T08:20:23;98871.28;;;6.22;62.81
40155;BME280;25875;48.202;16.334;2023-12-20T08:22:51;98867.00;;;6.20;62.98
40155;BME280;25875;48.202;16.334;2023-12-20T08:25:17;98865.44;;;6.16;62.62
40155;BME280;25875;48.202;16.334;2023-12-20T08:27:44;98844.34;;;5.97;62.51
40155;BME280;25875;48.202;16.334;2023-12-20T08:30:11;98877.00;;;6.12;62.44
40155;BME280;25875;48.202;16.334;2023-12-20T08:32:37;98877.81;;;6.14;62.26
40155;BME280;25875;48.202;16.334;2023-12-20T08:35:05;98890.88;;;6.15;62.37
40155;BME280;25875;48.202;16.334;2023-12-20T08:37:31;98884.00;;;6.13;62.41
40155;BME280;25875;48.202;16.334;2023-12-20T08:39:59;98889.31;;;6.11;62.31
40155;BME280;25875;48.202;16.334;2023-12-20T08:42:26;98876.88;;;6.15;62.37
40155;BME280;25875;48.202;16.334;2023-12-20T08:44:56;98877.72;;;6.15;62.37
40155;BME280;25875;48.202;16.334;2023-12-20T08:47:23;98901.34;;;6.17;62.83
40155;BME280;25875;48.202;16.334;2023-12-20T08:49:50;98915.44;;;6.16;62.33
40155;BME280;25875;48.202;16.334;2023-12-20T08:52:18;98916.28;;;6.16;62.17
40155;BME280;25875;48.202;16.334;2023-12-20T08:54:45;98882.09;;;5.96;62.30
40155;BME280;25875;48.202;16.334;2023-12-20T08:57:13;98920.97;;;6.09;62.47
40155;BME280;25875;48.202;16.334;2023-12-20T08:59:40;98921.94;;;6.07;62.58
40155;BME280;25875;48.202;16.334;2023-12-20T09:02:06;98940.44;;;6.05;62.53
40155;BME280;25875;48.202;16.334;2023-12-20T09:04:33;98904.19;;;5.92;62.74
40155;BME280;25875;48.202;16.334;2023-12-20T09:07:00;98899.00;;;5.90;62.65
40155;BME280;25875;48.202;16.334;2023-12-20T09:09:27;98935.16;;;6.05;62.81
40155;BME280;25875;48.202;16.334;2023-12-20T09:11:53;98940.63;;;6.01;63.20
40155;BME280;25875;48.202;16.334;2023-12-20T09:14:22;98930.09;;;6.01;63.53
40155;BME280;25875;48.202;16.334;2023-12-20T09:16:49;98952.94;;;6.00;63.33
40155;BME280;25875;48.202;16.334;2023-12-20T09:19:16;98967.84;;;6.00;63.94
40155;BME280;25875;48.202;16.334;2023-12-20T09:21:43;98941.88;;;5.92;64.54
40155;BME280;25875;48.202;16.334;2023-12-20T09:24:10;98947.78;;;5.97;64.79
40155;BME280;25875;48.202;16.334;2023-12-20T09:26:36;98930.31;;;5.96;65.42
40155;BME280;25875;48.202;16.334;2023-12-20T09:29:05;98942.59;;;5.96;65.38
40155;BME280;25875;48.202;16.334;2023-12-20T09:31:36;98906.75;;;5.73;65.33
40155;BME280;25875;48.202;16.334;2023-12-20T09:34:02;98941.03;;;5.92;65.59
40155;BME280;25875;48.202;16.334;2023-12-20T09:36:29;98961.22;;;5.91;65.62
40155;BME280;25875;48.202;16.334;2023-12-20T09:38:59;98989.22;;;5.92;65.61
40155;BME280;25875;48.202;16.334;2023-12-20T09:41:28;98949.25;;;5.84;66.14
40155;BME280;25875;48.202;16.334;2023-12-20T09:43:58;98960.53;;;5.86;66.38
40155;BME280;25875;48.202;16.334;2023-12-20T09:46:28;98857.31;;;5.20;66.54
40155;BME280;25875;48.202;16.334;2023-12-20T09:49:01;98958.19;;;5.80;67.13
40155;BME280;25875;48.202;16.334;2023-12-20T09:51:28;98943.44;;;5.76;67.19
40155;BME280;25875;48.202;16.334;2023-12-20T09:53:55;98942.78;;;5.71;67.60
40155;BME280;25875;48.202;16.334;2023-12-20T09:56:24;98928.06;;;5.67;68.07
40155;BME280;25875;48.202;16.334;2023-12-20T09:58:51;98940.47;;;5.63;68.24
40155;BME280;25875;48.202;16.334;2023-12-20T10:01:19;98939.09;;;5.55;69.02
40155;BME280;25875;48.202;16.334;2023-12-20T10:03:47;98930.22;;;5.57;69.07
40155;BME280;25875;48.202;16.334;2023-12-20T10:06:15;98945.25;;;5.54;69.75
40155;BME280;25875;48.202;16.334;2023-12-20T10:08:42;98920.09;;;5.48;69.66
40155;BME280;25875;48.202;16.334;2023-12-20T10:11:09;98925.22;;;5.51;69.95
40155;BME280;25875;48.202;16.334;2023-12-20T10:13:39;98932.97;;;5.54;69.66
40155;BME280;25875;48.202;16.334;2023-12-20T10:16:06;98878.06;;;5.26;70.16
40155;BME280;25875;48.202;16.334;2023-12-20T10:18:33;98913.38;;;5.41;70.83
40155;BME280;25875;48.202;16.334;2023-12-20T10:21:00;98911.00;;;5.35;70.70
40155;BME280;25875;48.202;16.334;2023-12-20T10:23:28;98899.75;;;5.31;70.88
40155;BME280;25875;48.202;16.334;2023-12-20T10:25:58;98870.63;;;5.16;70.38
40155;BME280;25875;48.202;16.334;2023-12-20T10:28:25;98913.44;;;5.39;70.48
40155;BME280;25875;48.202;16.334;2023-12-20T10:30:53;98660.28;;;3.94;70.39
40155;BME280;25875;48.202;16.334;2023-12-20T10:33:24;98910.06;;;5.36;70.20
40155;BME280;25875;48.202;16.334;2023-12-20T10:35:52;98966.25;;;5.33;70.31
40155;BME280;25875;48.202;16.334;2023-12-20T10:38:18;98874.91;;;5.18;70.08
40155;BME280;25875;48.202;16.334;2023-12-20T10:40:47;98885.63;;;5.34;70.35
40155;BME280;25875;48.202;16.334;2023-12-20T10:43:15;98906.66;;;5.34;70.79
40155;BME280;25875;48.202;16.334;2023-12-20T10:45:42;98889.13;;;5.34;70.28
40155;BME280;25875;48.202;16.334;2023-12-20T10:48:10;98766.81;;;4.63;70.54
40155;BME280;25875;48.202;16.334;2023-12-20T10:50:37;98891.75;;;5.34;70.61
40155;BME280;25875;48.202;16.334;2023-12-20T10:53:06;98878.66;;;5.33;70.66
40155;BME280;25875;48.202;16.334;2023-12-20T10:55:33;98875.97;;;5.34;70.43
40155;BME280;25875;48.202;16.334;2023-12-20T10:58:06;98868.16;;;5.33;70.60
40155;BME280;25875;48.202;16.334;2023-12-20T11:00:34;98873.28;;;5.36;70.40
40155;BME280;25875;48.202;16.334;2023-12-20T11:03:02;98886.31;;;5.39;70.36
40155;BME280;25875;48.202;16.334;2023-12-20T11:05:36;98883.81;;;5.36;70.55
40155;BME280;25875;48.202;16.334;2023-12-20T11:08:08;98867.84;;;5.40;70.18
40155;BME280;25875;48.202;16.334;2023-12-20T11:10:42;98847.72;;;5.39;70.90
40155;BME280;25875;48.202;16.334;2023-12-20T11:13:18;98864.16;;;5.44;70.44
40155;BME280;25875;48.202;16.334;2023-12-20T11:15:46;98632.59;;;4.08;70.43
40155;BME280;25875;48.202;16.334;2023-12-20T11:18:14;98844.84;;;5.45;70.48
40155;BME280;25875;48.202;16.334;2023-12-20T11:20:41;98841.38;;;5.45;70.39
40155;BME280;25875;48.202;16.334;2023-12-20T11:23:09;98821.06;;;5.28;70.78
40155;BME280;25875;48.202;16.334;2023-12-20T11:25:51;98842.81;;;5.52;70.32
40155;BME280;25875;48.202;16.334;2023-12-20T11:28:23;98841.97;;;5.52;70.48
40155;BME280;25875;48.202;16.334;2023-12-20T11:30:51;98833.22;;;5.51;70.78
40155;BME280;25875;48.202;16.334;2023-12-20T11:33:21;98843.72;;;5.51;70.66
40155;BME280;25875;48.202;16.334;2023-12-20T11:35:48;98832.22;;;5.54;70.45
40155;BME280;25875;48.202;16.334;2023-12-20T11:38:15;98828.69;;;5.55;70.80
40155;BME280;25875;48.202;16.334;2023-12-20T11:40:42;98826.84;;;5.57;70.61
40155;BME280;25875;48.202;16.334;2023-12-20T11:43:09;98835.66;;;5.56;70.58
40155;BME280;25875;48.202;16.334;2023-12-20T11:45:49;98833.81;;;5.58;70.45
40155;BME280;25875;48.202;16.334;2023-12-20T11:48:16;98831.06;;;5.61;70.50
40155;BME280;25875;48.202;16.334;2023-12-20T11:50:42;98852.94;;;5.61;70.57
40155;BME280;25875;48.202;16.334;2023-12-20T11:53:10;98851.03;;;5.65;70.62
40155;BME280;25875;48.202;16.334;2023-12-20T11:55:37;98805.28;;;5.49;70.49
40155;BME280;25875;48.202;16.334;2023-12-20T11:58:03;98829.00;;;5.67;70.37
40155;BME280;25875;48.202;16.334;2023-12-20T12:00:30;98838.53;;;5.70;70.63
40155;BME280;25875;48.202;16.334;2023-12-20T12:02:59;98753.13;;;5.19;69.96
40155;BME280;25875;48.202;16.334;2023-12-20T12:05:28;98838.34;;;5.74;69.84
40155;BME280;25875;48.202;16.334;2023-12-20T12:07:54;98827.69;;;5.77;69.79
40155;BME280;25875;48.202;16.334;2023-12-20T12:10:21;98811.66;;;5.63;69.64
40155;BME280;25875;48.202;16.334;2023-12-20T12:12:48;98836.16;;;5.84;69.53
40155;BME280;25875;48.202;16.334;2023-12-20T12:15:15;98817.88;;;5.81;69.78
40155;BME280;25875;48.202;16.334;2023-12-20T12:17:42;98809.78;;;5.86;69.34
40155;BME280;25875;48.202;16.334;2023-12-20T12:20:10;98783.06;;;5.76;68.90
40155;BME280;25875;48.202;16.334;2023-12-20T12:22:37;98807.59;;;5.95;69.11
40155;BME280;25875;48.202;16.334;2023-12-20T12:25:11;98809.31;;;5.96;69.04
40155;BME280;25875;48.202;16.334;2023-12-20T12:27:40;98782.00;;;5.80;68.62
40155;BME280;25875;48.202;16.334;2023-12-20T12:30:08;98795.16;;;5.99;68.87
40155;BME280;25875;48.202;16.334;2023-12-20T12:32:35;98796.72;;;6.03;69.00
40155;BME280;25875;48.202;16.334;2023-12-20T12:35:03;98799.34;;;6.03;68.62
40155;BME280;25875;48.202;16.334;2023-12-20T12:37:34;98772.06;;;5.87;68.78
40155;BME280;25875;48.202;16.334;2023-12-20T12:40:01;98814.22;;;6.04;68.91
40155;BME280;25875;48.202;16.334;2023-12-20T12:42:28;98794.81;;;6.06;68.71
40155;BME280;25875;48.202;16.334;2023-12-20T12:44:54;98797.44;;;6.06;68.93
40155;BME280;25875;48.202;16.334;2023-12-20T12:47:21;98825.47;;;6.07;68.46
40155;BME280;25875;48.202;16.334;2023-12-20T12:49:49;98779.09;;;5.86;68.32
40155;BME280;25875;48.202;16.334;2023-12-20T12:52:17;98809.75;;;6.06;68.52
40155;BME280;25875;48.202;16.334;2023-12-20T12:54:45;98800.16;;;6.05;68.24
40155;BME280;25875;48.202;16.334;2023-12-20T12:57:13;98823.97;;;6.02;68.37
40155;BME280;25875;48.202;16.334;2023-12-20T12:59:40;98817.06;;;5.99;68.31